Time;durP1;ratioP1;P1;durP2;ratioP2;P2;SDS_P1;SDS_P2;PMS_P1;PMS_P2;Temp;Humidity;BMP_temperature;BMP_pressure;BME280_temperature;BME280_humidity;BME280_pressure;Samples;Min_cycle;Max_cycle;Signal;HPM_P1;HPM_P2
2023/10/01 00:01:35;;;;;;;12.50;4.10;;;;;;;20.82;57.24;102419.31;4995688;28;20100;-46
2023/10/01 00:04:06;;;;;;;12.65;4.57;;;;;;;20.73;57.30;102419.38;5012466;28;20512;-44
2023/10/01 00:06:34;;;;;;;14.40;4.70;;;;;;;20.71;57.34;102422.91;5013103;28;20511;-46
2023/10/01 00:08:59;;;;;;;11.43;4.30;;;;;;;20.71;57.60;102420.25;5012572;28;20089;-44
2023/10/01 00:11:25;;;;;;;11.10;4.18;;;;;;;20.82;57.16;102423.75;5012737;28;20492;-45
2023/10/01 00:13:51;;;;;;;14.77;4.38;;;;;;;20.82;57.01;102419.31;5012315;28;20527;-45
2023/10/01 00:16:16;;;;;;;11.57;4.15;;;;;;;20.88;56.97;102419.31;5012981;28;20045;-46
2023/10/01 00:18:41;;;;;;;13.82;4.43;;;;;;;20.61;58.27;102432.69;5012899;28;20030;-46
2023/10/01 00:21:07;;;;;;;8.50;3.95;;;;;;;20.77;57.62;102438.78;5012549;28;20049;-45
2023/10/01 00:23:33;;;;;;;12.50;4.22;;;;;;;20.61;58.34;102427.38;5012895;28;20045;-46
2023/10/01 00:25:58;;;;;;;13.68;4.22;;;;;;;20.56;58.46;102432.66;5015940;28;20042;-48
2023/10/01 00:28:24;;;;;;;12.50;4.50;;;;;;;20.67;57.96;102424.72;5013066;28;20041;-47
2023/10/01 00:30:49;;;;;;;10.13;3.85;;;;;;;20.66;58.02;102417.63;5014759;28;20041;-47
2023/10/01 00:33:15;;;;;;;12.18;4.35;;;;;;;20.75;57.55;102416.69;5014612;28;20030;-45
2023/10/01 00:35:41;;;;;;;10.38;4.20;;;;;;;20.62;57.84;102406.16;5012985;28;20417;-47
2023/10/01 00:38:07;;;;;;;11.60;4.20;;;;;;;20.56;58.15;102408.81;5012324;28;20041;-44
2023/10/01 00:40:33;;;;;;;10.70;4.50;;;;;;;20.53;58.09;102408.84;5012946;28;20602;-44
2023/10/01 00:42:58;;;;;;;13.50;4.20;;;;;;;20.39;58.64;102408.00;5012089;28;20069;-45
2023/10/01 00:45:23;;;;;;;14.02;4.53;;;;;;;20.47;58.63;102408.88;5011427;28;20069;-45
2023/10/01 00:47:51;;;;;;;10.13;4.45;;;;;;;20.39;59.03;102409.75;5011842;28;20389;-45
2023/10/01 00:50:23;;;;;;;12.73;4.25;;;;;;;20.41;58.52;102405.34;5012335;28;20072;-45
2023/10/01 00:52:51;;;;;;;12.57;4.30;;;;;;;20.43;58.91;102406.25;5011798;28;20034;-48
2023/10/01 00:55:18;;;;;;;11.82;4.40;;;;;;;20.54;58.28;102402.66;5012328;28;20030;-44
2023/10/01 00:57:44;;;;;;;12.57;4.28;;;;;;;20.53;58.18;102403.56;5013310;28;20499;-42
2023/10/01 01:00:16;;;;;;;13.93;4.53;;;;;;;20.45;58.53;102405.34;5012670;28;20033;-46
2023/10/01 01:02:57;;;;;;;14.93;4.53;;;;;;;20.59;58.24;102394.69;5012423;28;20408;-43
2023/10/01 01:05:36;;;;;;;12.02;4.22;;;;;;;20.54;58.27;102397.38;5011959;28;20040;-46
2023/10/01 01:08:09;;;;;;;10.52;4.07;;;;;;;20.49;58.43;102393.81;5010293;28;20058;-44
2023/10/01 01:10:42;;;;;;;11.40;4.30;;;;;;;20.24;59.31;102398.31;5011992;28;20128;-45
2023/10/01 01:13:08;;;;;;;9.60;3.90;;;;;;;20.39;59.02;102381.50;5011390;28;20033;-43
2023/10/01 01:15:34;;;;;;;11.18;3.92;;;;;;;20.45;58.94;102383.25;5016707;28;20030;-45
2023/10/01 01:18:06;;;;;;;10.20;3.85;;;;;;;20.38;59.06;102378.84;5011701;28;20049;-46
2023/10/01 01:20:36;;;;;;;13.10;4.15;;;;;;;20.37;59.01;102377.13;5012358;28;20028;-52
2023/10/01 01:23:05;;;;;;;10.68;3.65;;;;;;;20.34;59.35;102378.00;5011528;28;20092;-40
2023/10/01 01:25:32;;;;;;;10.32;4.00;;;;;;;20.40;58.95;102377.09;5011892;28;20536;-44
2023/10/01 01:27:58;;;;;;;13.25;3.88;;;;;;;20.32;59.31;102379.75;5011474;28;20041;-48
2023/10/01 01:30:26;;;;;;;8.55;3.35;;;;;;;20.36;59.22;102376.25;5012320;28;20037;-43
2023/10/01 01:32:57;;;;;;;10.80;3.63;;;;;;;20.09;59.74;102379.78;5011287;28;20038;-44
2023/10/01 01:35:29;;;;;;;13.50;4.30;;;;;;;20.26;59.66;102370.03;5011466;28;20032;-44
2023/10/01 01:38:00;;;;;;;10.50;3.78;;;;;;;20.27;59.25;102368.28;5010896;28;20041;-44
2023/10/01 01:40:32;;;;;;;11.02;3.92;;;;;;;20.27;59.33;102371.81;5011213;28;20038;-47
2023/10/01 01:43:03;;;;;;;14.02;3.92;;;;;;;20.32;59.18;102363.88;4993402;28;20041;-44
2023/10/01 01:45:33;;;;;;;12.50;3.70;;;;;;;20.45;58.93;102362.94;5011571;28;20095;-44
2023/10/01 01:48:01;;;;;;;12.82;3.85;;;;;;;20.38;59.00;102358.56;5010962;28;20500;-44
2023/10/01 01:50:26;;;;;;;16.85;4.00;;;;;;;20.42;59.04;102362.09;5011286;28;20541;-44
2023/10/01 01:52:56;;;;;;;14.57;4.18;;;;;;;20.40;59.07;102358.56;5010682;28;20121;-49
2023/10/01 01:55:29;;;;;;;10.77;3.80;;;;;;;20.39;59.01;102356.78;5011163;28;20030;-46
2023/10/01 01:58:11;;;;;;;13.57;4.00;;;;;;;20.52;58.77;102363.81;5010611;28;20061;-48
2023/10/01 02:00:38;;;;;;;9.98;3.78;;;;;;;20.57;58.58;102364.66;5010703;28;20033;-46
2023/10/01 02:03:10;;;;;;;14.63;4.35;;;;;;;20.43;59.42;102353.25;5010133;28;20081;-46
2023/10/01 02:05:41;;;;;;;12.23;4.35;;;;;;;20.49;59.13;102355.88;5010852;28;20046;-45
2023/10/01 02:08:11;;;;;;;11.00;4.20;;;;;;;20.50;59.09;102357.63;5010357;28;20045;-44
2023/10/01 02:10:46;;;;;;;10.10;4.07;;;;;;;20.55;58.86;102359.38;5010707;28;20500;-43
2023/10/01 02:13:17;;;;;;;11.48;4.50;;;;;;;20.37;59.66;102351.47;5010181;28;20049;-45
2023/10/01 02:15:45;;;;;;;11.73;4.18;;;;;;;20.55;58.89;102355.88;4993622;28;20457;-45
2023/10/01 02:18:16;;;;;;;14.30;4.40;;;;;;;20.45;59.81;102357.66;4992994;28;20034;-45
2023/10/01 02:20:44;;;;;;;14.43;4.13;;;;;;;20.53;59.45;102362.94;5010350;28;20045;-43
2023/10/01 02:23:12;;;;;;;11.48;4.28;;;;;;;20.41;59.46;102347.97;5010226;28;20041;-48
2023/10/01 02:25:45;;;;;;;14.20;4.63;;;;;;;20.57;59.03;102351.41;5010568;28;20044;-48
2023/10/01 02:28:15;;;;;;;15.23;4.80;;;;;;;20.43;59.55;102347.97;5010162;28;20034;-44
2023/10/01 02:30:41;;;;;;;13.95;4.40;;;;;;;20.62;59.27;102350.50;5010186;28;20038;-44
2023/10/01 02:33:20;;;;;;;10.77;4.15;;;;;;;20.65;59.23;102353.16;5009374;28;20041;-44
2023/10/01 02:35:50;;;;;;;14.32;4.95;;;;;;;20.79;58.90;102344.25;5009678;28;20034;-45
2023/10/01 02:41:02;;;;;;;11.82;4.72;;;;;;;20.73;58.92;102341.63;5009620;28;20065;-42
2023/10/01 02:43:33;;;;;;;11.90;4.80;;;;;;;20.72;59.21;102348.72;5009843;28;20052;-44
2023/10/01 02:46:09;;;;;;;13.10;4.53;;;;;;;20.66;59.37;102348.75;5009695;28;20034;-44
2023/10/01 02:48:34;;;;;;;13.90;4.35;;;;;;;20.67;59.54;102345.19;5010818;28;20434;-44
2023/10/01 02:51:16;;;;;;;15.77;4.85;;;;;;;20.62;59.85;102342.56;5009659;28;20041;-41
2023/10/01 02:56:52;;;;;;;14.02;4.80;;;;;;;20.71;59.37;102344.28;5004983;28;20034;-44
2023/10/01 02:59:19;;;;;;;14.77;4.60;;;;;;;20.42;60.68;102344.44;5009774;28;20119;-44
2023/10/01 03:01:48;;;;;;;14.80;4.55;;;;;;;20.43;60.59;102343.50;5009137;28;20500;-42
2023/10/01 03:04:16;;;;;;;15.88;5.20;;;;;;;20.41;61.03;102344.44;5009516;28;20065;-48
2023/10/01 03:06:57;;;;;;;13.13;4.90;;;;;;;20.70;60.20;102339.00;5009653;28;20042;-48
2023/10/01 03:09:32;;;;;;;14.27;5.18;;;;;;;20.67;60.10;102344.31;5009732;28;20567;-43
2023/10/01 03:17:33;;;;;;;9.20;4.57;;;;;;;20.73;59.97;102331.03;4969097;28;20129;-45
2023/10/01 03:20:12;;;;;;;13.00;4.90;;;;;;;20.83;59.69;102330.09;5009044;28;20041;-47
2023/10/01 03:22:37;;;;;;;14.10;5.15;;;;;;;20.82;60.09;102328.31;5009233;28;20060;-44
2023/10/01 03:25:28;;;;;;;11.57;5.35;;;;;;;20.77;59.90;102335.44;5010060;28;20042;-44
2023/10/01 03:27:58;;;;;;;14.73;5.18;;;;;;;20.63;60.84;102325.78;5009045;28;20037;-44
2023/10/01 03:30:23;;;;;;;11.15;4.50;;;;;;;20.58;61.07;102335.50;5010878;28;20033;-44
2023/10/01 03:32:49;;;;;;;14.02;5.03;;;;;;;20.61;60.97;102319.59;5015394;28;20480;-46
2023/10/01 03:35:14;;;;;;;13.70;4.85;;;;;;;20.37;61.81;102325.00;5016157;28;20503;-45
2023/10/01 03:37:40;;;;;;;12.68;4.80;;;;;;;20.60;61.00;102325.81;5015770;28;20132;-46
2023/10/01 03:40:35;;;;;;;13.63;4.93;;;;;;;20.73;60.50;102323.97;5015515;28;20041;-47
2023/10/01 03:42:54;;;;;;;16.20;5.03;;;;;;;20.65;60.74;102323.13;5014726;28;20034;-48
2023/10/01 03:47:57;;;;;;;12.00;4.88;;;;;;;20.71;60.46;102320.44;5015562;28;20455;-44
2023/10/01 03:50:25;;;;;;;11.43;5.03;;;;;;;20.50;61.94;102313.47;5015906;28;20092;-45
2023/10/01 03:52:54;;;;;;;13.40;5.05;;;;;;;20.35;61.98;102310.91;5015168;28;20030;-44
2023/10/01 03:55:27;;;;;;;10.73;4.80;;;;;;;20.63;61.39;102322.25;5016081;28;20038;-47
2023/10/01 04:00:40;;;;;;;13.70;5.15;;;;;;;20.47;61.84;102320.56;5015640;28;20117;-46
2023/10/01 04:03:13;;;;;;;13.70;5.00;;;;;;;20.58;61.64;102319.63;5015281;28;20488;-44
2023/10/01 04:05:44;;;;;;;13.18;4.50;;;;;;;20.70;61.17;102318.66;5015954;28;20061;-46
2023/10/01 04:08:12;;;;;;;13.65;4.75;;;;;;;20.74;61.04;102308.94;5015538;28;20030;-45
2023/10/01 04:10:38;;;;;;;11.57;4.55;;;;;;;20.64;61.44;102309.00;5015651;28;20120;-44
2023/10/01 04:13:20;;;;;;;13.82;5.05;;;;;;;20.78;61.01;102313.34;5015195;28;20037;-48
2023/10/01 04:15:47;;;;;;;12.10;4.65;;;;;;;20.80;61.14;102315.06;5015457;28;20171;-43
2023/10/01 04:20:49;;;;;;;14.95;4.95;;;;;;;20.92;60.73;102322.94;5015910;28;20049;-45
2023/10/01 04:23:29;;;;;;;11.60;4.97;;;;;;;20.68;61.37;102317.78;5015278;28;20527;-48
2023/10/01 04:25:54;;;;;;;12.13;4.90;;;;;;;20.86;61.07;102319.47;5015479;28;20057;-45
2023/10/01 04:28:20;;;;;;;12.18;4.80;;;;;;;20.74;61.61;102327.50;5016152;28;20411;-45
2023/10/01 04:30:51;;;;;;;12.13;5.00;;;;;;;20.72;61.21;102313.38;5014975;28;20037;-45
2023/10/01 04:33:17;;;;;;;10.68;4.55;;;;;;;20.80;61.07;102319.53;5015404;28;20033;-46
2023/10/01 04:35:55;;;;;;;12.30;4.93;;;;;;;20.72;61.39;102319.56;4997993;28;20038;-43
2023/10/01 04:38:32;;;;;;;14.98;4.88;;;;;;;20.89;60.76;102315.03;5015415;28;20128;-46
2023/10/01 04:40:59;;;;;;;10.95;4.72;;;;;;;20.86;60.86;102316.84;5015511;28;20045;-44
2023/10/01 04:43:34;;;;;;;14.65;4.53;;;;;;;20.71;61.79;102323.09;5012617;28;20124;-46
2023/10/01 04:46:01;;;;;;;13.50;4.63;;;;;;;20.77;61.32;102325.69;5011840;28;20029;-46
2023/10/01 04:48:26;;;;;;;12.82;5.25;;;;;;;20.63;62.28;102327.53;5012362;28;20038;-45
2023/10/01 04:50:55;;;;;;;14.43;5.13;;;;;;;20.66;61.86;102330.19;5011891;28;20065;-43
2023/10/01 04:53:25;;;;;;;13.35;4.82;;;;;;;20.77;61.80;102322.16;5012692;28;20121;-42
2023/10/01 04:56:00;;;;;;;13.95;5.40;;;;;;;20.72;61.82;102323.97;5012075;28;20034;-42
2023/10/01 04:58:32;;;;;;;15.20;5.18;;;;;;;20.84;61.26;102326.56;5012745;28;20034;-42
2023/10/01 05:00:58;;;;;;;13.30;5.10;;;;;;;20.81;61.55;102314.19;5011577;28;20041;-43
2023/10/01 05:03:38;;;;;;;12.95;5.38;;;;;;;20.69;62.06;102316.03;5011747;28;20046;-44
2023/10/01 05:06:12;;;;;;;13.52;5.22;;;;;;;20.72;61.85;102310.72;5011365;28;20042;-44
2023/10/01 05:08:38;;;;;;;;;;;;;;;20.75;61.66;102308.03;5012483;28;20046;-43
2023/10/01 05:11:10;;;;;;;12.43;5.35;;;;;;;20.78;61.33;102315.97;5010983;28;19921;-44
2023/10/01 05:13:39;;;;;;;14.40;5.05;;;;;;;20.80;61.07;102315.06;5011727;28;20050;-47
2023/10/01 05:16:06;;;;;;;14.35;5.10;;;;;;;20.83;61.15;102323.03;5011421;28;20085;-44
2023/10/01 05:18:37;;;;;;;10.68;5.00;;;;;;;20.86;61.28;102330.09;5011634;28;20041;-44
2023/10/01 05:21:09;;;;;;;13.05;5.10;;;;;;;20.60;62.21;102332.88;5010919;28;20042;-45
2023/10/01 05:23:36;;;;;;;11.77;5.38;;;;;;;20.72;61.87;102331.91;5011388;28;20042;-45
2023/10/01 05:26:03;;;;;;;13.52;5.50;;;;;;;20.80;61.35;102341.56;5010751;28;20030;-47
2023/10/01 05:28:31;;;;;;;16.95;5.53;;;;;;;20.78;61.62;102335.44;5011721;28;20092;-45
2023/10/01 05:31:15;;;;;;;15.30;5.60;;;;;;;20.85;61.41;102326.56;5011291;28;20037;-48
2023/10/01 05:33:46;;;;;;;12.93;5.40;;;;;;;20.77;61.55;102341.59;5011452;28;20121;-46
2023/10/01 05:36:13;;;;;;;14.50;5.45;;;;;;;20.81;61.83;102339.81;5011423;28;20432;-43
2023/10/01 05:38:39;;;;;;;14.40;5.35;;;;;;;20.54;62.13;102330.25;5011314;28;20092;-45
2023/10/01 05:41:09;;;;;;;15.48;5.93;;;;;;;20.49;62.39;102335.53;5010466;28;20046;-47
2023/10/01 05:43:43;;;;;;;12.95;5.57;;;;;;;20.75;61.96;102339.84;5011136;28;20429;-45
2023/10/01 05:46:09;;;;;;;14.63;5.47;;;;;;;20.87;61.41;102347.72;5010784;28;20049;-48
2023/10/01 05:48:41;;;;;;;15.10;6.18;;;;;;;20.55;62.60;102337.31;5011398;28;20538;-46
2023/10/01 05:51:12;;;;;;;15.00;5.78;;;;;;;20.74;62.21;102343.41;5010788;28;20495;-44
2023/10/01 05:53:40;;;;;;;16.23;5.78;;;;;;;20.76;61.85;102334.53;5010655;28;20518;-44
2023/10/01 05:56:17;;;;;;;14.43;5.78;;;;;;;20.73;61.90;102334.56;5010782;28;20054;-44
2023/10/01 05:58:43;;;;;;;16.13;5.78;;;;;;;20.77;61.95;102338.97;5011001;28;20041;-47
2023/10/01 06:01:16;;;;;;;15.52;5.93;;;;;;;20.80;61.94;102333.63;5010062;28;20421;-44
2023/10/01 06:03:48;;;;;;;12.95;5.75;;;;;;;20.74;62.10;102333.66;5010551;28;20084;-45
2023/10/01 06:06:25;;;;;;;13.98;5.10;;;;;;;20.57;62.73;102328.44;5010499;28;20037;-49
2023/10/01 06:09:00;;;;;;;14.23;5.90;;;;;;;20.73;62.76;102331.91;5010084;28;20459;-43
2023/10/01 06:11:39;;;;;;;12.18;5.80;;;;;;;20.69;62.75;102340.75;5010363;28;20045;-45
2023/10/01 06:14:06;;;;;;;13.57;6.28;;;;;;;20.75;62.84;102348.69;4992555;28;20117;-46
2023/10/01 06:16:37;;;;;;;14.35;5.70;;;;;;;20.86;62.33;102340.69;5012462;28;20496;-45
2023/10/01 06:19:04;;;;;;;13.35;6.03;;;;;;;20.84;62.43;102338.03;5012693;28;20069;-44
2023/10/01 06:21:31;;;;;;;12.77;5.57;;;;;;;20.92;62.16;102344.16;5011111;28;20496;-45
2023/10/01 06:23:58;;;;;;;15.85;6.10;;;;;;;20.95;62.12;102344.16;5010152;28;20046;-45
2023/10/01 06:26:36;;;;;;;15.50;6.40;;;;;;;21.03;61.83;102341.47;5011016;28;20030;-43
2023/10/01 06:29:07;;;;;;;15.20;6.15;;;;;;;21.63;61.26;102342.78;5010237;28;20034;-45
2023/10/01 06:31:48;;;;;;;12.98;5.93;;;;;;;22.45;58.19;102343.69;5010779;28;20500;-46
2023/10/01 06:34:23;;;;;;;16.08;6.00;;;;;;;23.22;55.37;102334.66;5010082;28;20037;-44
2023/10/01 06:36:51;;;;;;;13.55;6.03;;;;;;;23.59;53.59;102326.97;5010132;28;20064;-44
2023/10/01 06:39:20;;;;;;;13.45;5.45;;;;;;;24.06;51.66;102319.88;5010521;28;20072;-48
2023/10/01 06:41:50;;;;;;;15.48;5.90;;;;;;;24.39;50.28;102321.03;5009430;28;20047;-47
2023/10/01 06:44:19;;;;;;;15.32;6.28;;;;;;;24.20;50.45;102324.06;5010003;28;20037;-45
2023/10/01 06:46:47;;;;;;;16.45;6.22;;;;;;;24.30;50.03;102322.06;5009641;28;20411;-46
2023/10/01 06:49:13;;;;;;;15.95;6.30;;;;;;;24.21;50.05;102322.28;5009986;28;20037;-46
2023/10/01 06:51:44;;;;;;;16.55;6.55;;;;;;;24.38;50.72;102328.13;5010025;28;20029;-45
2023/10/01 06:54:11;;;;;;;14.23;6.38;;;;;;;24.04;51.45;102329.66;5009836;28;20034;-45
2023/10/01 06:56:38;;;;;;;13.05;6.28;;;;;;;25.09;47.86;102330.13;5009869;28;20041;-46
2023/10/01 07:01:42;;;;;;;12.68;6.18;;;;;;;25.23;47.08;102328.91;5009916;28;20030;-45
2023/10/01 07:04:09;;;;;;;15.23;6.75;;;;;;;25.43;47.76;102336.41;5009051;28;20120;-51
2023/10/01 07:06:38;;;;;;;16.50;7.20;;;;;;;24.51;48.74;102336.75;5009083;28;20045;-46
2023/10/01 07:09:23;;;;;;;15.68;6.90;;;;;;;24.35;50.15;102341.50;5009672;28;20038;-44
2023/10/01 07:11:49;;;;;;;15.32;6.70;;;;;;;23.85;51.64;102339.78;5009424;28;20034;-45
2023/10/01 07:14:14;;;;;;;18.27;7.13;;;;;;;23.26;53.25;102341.69;5010012;28;20408;-45
2023/10/01 07:16:40;;;;;;;17.95;6.88;;;;;;;23.02;54.69;102356.25;5010007;28;20045;-44
2023/10/01 07:19:06;;;;;;;17.92;7.30;;;;;;;22.62;56.07;102361.22;5009503;28;20029;-44
2023/10/01 07:21:35;;;;;;;17.65;7.00;;;;;;;22.27;56.95;102363.38;5010223;28;20025;-46
2023/10/01 07:24:04;;;;;;;15.40;7.50;;;;;;;21.89;58.25;102366.44;5009505;28;20041;-44
2023/10/01 07:26:30;;;;;;;16.95;6.93;;;;;;;22.09;58.31;102359.16;4992400;28;20652;-45
2023/10/01 07:28:56;;;;;;;17.58;7.18;;;;;;;22.12;57.80;102359.16;5009297;28;20040;-44
2023/10/01 07:31:25;;;;;;;15.68;6.85;;;;;;;22.40;57.42;102353.50;5009858;28;20125;-45
2023/10/01 07:33:53;;;;;;;16.27;7.25;;;;;;;22.26;57.77;102354.53;5009033;28;20033;-44
2023/10/01 07:36:19;;;;;;;17.63;7.53;;;;;;;22.07;58.52;102358.31;5009463;28;20030;-48
2023/10/01 07:38:49;;;;;;;18.30;7.70;;;;;;;22.00;58.23;102358.38;5009170;28;20092;-44
2023/10/01 07:41:18;;;;;;;17.77;7.57;;;;;;;21.74;59.20;102346.22;5009226;28;20404;-45
2023/10/01 07:43:43;;;;;;;14.48;7.00;;;;;;;22.08;58.67;102356.53;5009530;28;20042;-45
2023/10/01 07:46:09;;;;;;;15.77;7.18;;;;;;;22.15;58.95;102355.56;5009349;28;20092;-44
2023/10/01 07:48:47;;;;;;;17.67;6.97;;;;;;;22.16;58.93;102344.03;5009476;28;20042;-44
2023/10/01 07:51:28;;;;;;;16.65;7.28;;;;;;;22.47;57.80;102353.41;5009011;28;20030;-45
2023/10/01 07:53:57;;;;;;;16.13;6.85;;;;;;;22.66;57.99;102354.94;5008557;28;20044;-45
2023/10/01 07:56:22;;;;;;;17.48;7.45;;;;;;;23.05;56.90;102344.69;5009299;28;20026;-48
2023/10/01 07:59:16;;;;;;;17.67;7.20;;;;;;;23.27;56.01;102342.56;5008832;28;20084;-47
2023/10/01 08:01:45;;;;;;;15.05;7.07;;;;;;;23.40;56.30;102347.66;5009204;28;20044;-44
2023/10/01 08:07:15;;;;;;;16.77;6.88;;;;;;;23.03;56.67;102346.47;5000068;28;20030;-44
2023/10/01 08:09:40;;;;;;;14.77;6.78;;;;;;;22.81;58.21;102350.34;5009046;28;20053;-47
2023/10/01 08:12:06;;;;;;;14.88;6.85;;;;;;;23.18;57.38;102350.66;5008474;28;20026;-46
2023/10/01 08:14:35;;;;;;;13.90;6.90;;;;;;;23.17;56.14;102348.94;4991927;28;20412;-44
2023/10/01 08:17:05;;;;;;;19.33;6.97;;;;;;;23.49;55.67;102340.44;5009731;28;20053;-46
2023/10/01 08:19:49;;;;;;;16.60;7.60;;;;;;;23.19;56.81;102355.97;5013702;28;20033;-46
2023/10/01 08:22:22;;;;;;;14.73;6.95;;;;;;;23.22;56.21;102347.06;5022195;28;20049;-46
2023/10/01 08:24:49;;;;;;;16.30;7.00;;;;;;;23.31;55.99;102349.56;5019036;28;20045;-44
2023/10/01 08:27:31;;;;;;;17.20;6.85;;;;;;;23.13;56.34;102350.75;5012779;28;20484;-46
2023/10/01 08:29:59;;;;;;;14.25;7.10;;;;;;;23.20;55.94;102355.06;5012043;28;20118;-45
2023/10/01 08:32:37;;;;;;;15.73;7.15;;;;;;;22.89;57.48;102352.00;5012690;28;20041;-45
2023/10/01 08:35:05;;;;;;;15.38;6.78;;;;;;;23.01;57.00;102356.25;5012214;28;20030;-44
2023/10/01 08:37:31;;;;;;;16.92;7.32;;;;;;;22.69;58.19;102356.66;5013003;28;20092;-43
2023/10/01 08:39:59;;;;;;;17.85;6.75;;;;;;;22.88;58.24;102355.53;5012356;28;20046;-44
2023/10/01 08:42:31;;;;;;;18.80;7.22;;;;;;;22.99;58.16;102358.06;5012388;28;20504;-46
2023/10/01 08:45:04;;;;;;;17.65;7.10;;;;;;;23.03;57.64;102358.00;4994447;28;20492;-47
2023/10/01 08:47:31;;;;;;;15.85;6.93;;;;;;;23.19;57.34;102355.09;5012565;28;20029;-45
2023/10/01 08:52:52;;;;;;;15.45;6.97;;;;;;;23.48;56.71;102349.34;5012061;28;20432;-47
2023/10/01 08:55:21;;;;;;;16.77;6.63;;;;;;;23.47;57.20;102353.81;5011890;28;20532;-44
2023/10/01 08:57:46;;;;;;;14.80;6.57;;;;;;;23.33;57.02;102356.66;5011590;28;20528;-47
2023/10/01 09:00:19;;;;;;;16.30;6.88;;;;;;;23.32;57.41;102362.00;5012080;28;20045;-44
2023/10/01 09:02:55;;;;;;;16.05;7.20;;;;;;;23.23;57.93;102348.84;5011686;28;20718;-45
2023/10/01 09:05:25;;;;;;;13.73;6.55;;;;;;;23.60;57.09;102347.38;5011903;28;20034;-47
2023/10/01 09:08:15;;;;;;;15.70;6.78;;;;;;;23.29;57.99;102360.28;5011792;28;20492;-48
2023/10/01 09:10:52;;;;;;;15.40;7.20;;;;;;;23.15;58.25;102356.06;5011688;28;20041;-45
2023/10/01 09:13:21;;;;;;;17.55;7.63;;;;;;;23.53;56.94;102352.81;5010872;28;20034;-44
2023/10/01 09:15:47;;;;;;;14.73;6.80;;;;;;;23.88;56.42;102347.75;5011401;28;20068;-44
2023/10/01 09:18:20;;;;;;;15.32;7.05;;;;;;;23.97;56.16;102347.56;5012089;28;20044;-45
2023/10/01 09:23:55;;;;;;;13.77;6.55;;;;;;;24.42;54.85;102348.47;5011782;28;20125;-47
2023/10/01 09:26:37;;;;;;;14.18;6.40;;;;;;;24.34;54.78;102353.06;5012255;28;20026;-47
2023/10/01 09:29:13;;;;;;;17.45;7.32;;;;;;;23.85;55.38;102348.66;5009944;28;20061;-48
2023/10/01 09:31:58;;;;;;;13.98;7.38;;;;;;;24.35;53.77;102349.50;5011495;28;20042;-45
2023/10/01 09:34:31;;;;;;;14.55;6.15;;;;;;;24.50;54.00;102357.22;5011190;28;20089;-44
2023/10/01 09:37:35;;;;;;;14.48;6.20;;;;;;;24.19;55.10;102351.63;5011402;28;20113;-44
2023/10/01 09:40:05;;;;;;;13.47;6.03;;;;;;;24.57;54.30;102353.50;5011221;28;20069;-45
2023/10/01 09:42:44;;;;;;;12.68;5.88;;;;;;;24.55;54.42;102355.31;5011054;28;20030;-47
2023/10/01 09:45:26;;;;;;;14.52;6.18;;;;;;;24.79;53.69;102342.34;5011224;28;20068;-45
2023/10/01 09:48:02;;;;;;;15.60;6.40;;;;;;;24.60;53.44;102341.88;4993342;28;20041;-45
2023/10/01 09:50:31;;;;;;;15.25;6.38;;;;;;;24.40;54.42;102344.06;5011517;28;20412;-44
2023/10/01 09:53:00;;;;;;;13.77;6.20;;;;;;;24.54;53.88;102344.69;5010946;28;20519;-50
2023/10/01 09:55:27;;;;;;;16.88;6.50;;;;;;;24.50;54.04;102343.88;5011481;28;20034;-46
2023/10/01 09:57:54;;;;;;;16.70;6.65;;;;;;;24.30;54.37;102342.53;5010838;28;20038;-45
2023/10/01 10:00:21;;;;;;;15.23;6.65;;;;;;;24.52;53.15;102343.81;5011229;28;20488;-45
2023/10/01 10:02:51;;;;;;;18.52;6.50;;;;;;;24.89;53.12;102339.47;5010793;28;20042;-45
2023/10/01 10:05:26;;;;;;;13.45;6.10;;;;;;;25.06;52.81;102339.09;5011500;28;20034;-46
2023/10/01 10:08:13;;;;;;;14.95;6.15;;;;;;;24.80;53.94;102337.00;5011267;28;20030;-44
2023/10/01 10:10:50;;;;;;;16.00;6.20;;;;;;;24.23;54.79;102339.97;5011477;28;20428;-44
2023/10/01 10:13:47;;;;;;;14.85;6.72;;;;;;;24.63;54.00;102336.50;5011937;28;20085;-44
2023/10/01 10:16:30;;;;;;;12.70;6.47;;;;;;;24.85;52.79;102321.75;5011719;28;20041;-43
2023/10/01 10:19:23;;;;;;;17.40;6.72;;;;;;;24.84;53.42;102320.00;5010577;28;20061;-47
2023/10/01 10:24:32;;;;;;;12.00;5.95;;;;;;;25.04;52.44;102320.44;5010211;28;20034;-44
2023/10/01 10:27:27;;;;;;;14.75;6.45;;;;;;;25.10;52.18;102316.75;5010061;28;20732;-44
2023/10/01 10:29:57;;;;;;;14.40;6.50;;;;;;;25.46;51.46;102321.19;5009903;28;20484;-46
2023/10/01 10:32:26;;;;;;;12.80;6.20;;;;;;;25.41;51.59;102316.88;5010409;28;20042;-46
2023/10/01 10:35:03;;;;;;;14.52;6.60;;;;;;;24.92;53.62;102319.84;5010103;28;20041;-46
2023/10/01 10:37:53;;;;;;;13.98;6.43;;;;;;;25.18;52.53;102316.56;5010677;28;20427;-45
2023/10/01 10:40:23;;;;;;;15.30;6.60;;;;;;;25.37;50.84;102313.38;5010288;28;20562;-47
2023/10/01 10:43:02;;;;;;;12.38;6.47;;;;;;;24.95;52.92;102327.78;4992261;28;20128;-46
2023/10/01 10:45:42;;;;;;;16.40;7.57;;;;;;;24.98;53.08;102327.72;5010426;28;20121;-45
2023/10/01 10:48:08;;;;;;;15.35;6.70;;;;;;;24.86;53.26;102323.50;5009890;28;20026;-46
2023/10/01 10:50:46;;;;;;;14.40;6.72;;;;;;;24.99;53.79;102330.34;5009990;28;20080;-44
2023/10/01 10:53:16;;;;;;;17.35;6.68;;;;;;;24.91;53.48;102320.75;5009535;28;20571;-45
2023/10/01 10:56:08;;;;;;;14.75;6.13;;;;;;;25.30;53.11;102318.94;5010123;28;20038;-47
2023/10/01 10:59:01;;;;;;;14.80;6.35;;;;;;;25.42;53.60;102316.84;5010448;28;20128;-46
2023/10/01 11:01:43;;;;;;;16.40;6.30;;;;;;;25.67;52.23;102327.81;5010383;28;20507;-44
2023/10/01 11:04:09;;;;;;;16.27;6.60;;;;;;;25.61;52.37;102322.63;5009797;28;20714;-47
2023/10/01 11:09:23;;;;;;;14.70;6.63;;;;;;;25.31;53.64;102318.88;5009986;28;20030;-45
2023/10/01 11:11:50;;;;;;;15.38;6.20;;;;;;;25.78;51.81;102312.34;5010537;28;20038;-46
2023/10/01 11:14:18;;;;;;;12.82;6.30;;;;;;;25.87;50.59;102303.19;5011399;28;20050;-47
2023/10/01 11:16:45;;;;;;;14.75;6.10;;;;;;;25.32;52.09;102315.31;5011845;28;20026;-43
2023/10/01 11:19:12;;;;;;;16.35;5.90;;;;;;;25.60;52.64;102306.63;4992311;28;20084;-44
2023/10/01 11:22:05;;;;;;;16.30;6.43;;;;;;;25.33;51.98;102306.38;5010102;28;20080;-44
2023/10/01 11:24:35;;;;;;;13.63;5.80;;;;;;;25.66;51.59;102302.00;5003663;28;20037;-46
2023/10/01 11:27:24;;;;;;;14.80;6.38;;;;;;;25.58;51.58;102308.44;5009765;28;20041;-48
2023/10/01 11:29:59;;;;;;;14.30;5.95;;;;;;;25.80;51.60;102314.97;5010244;28;20392;-44
2023/10/01 11:32:59;;;;;;;15.32;5.95;;;;;;;26.13;50.31;102316.72;5010399;28;20085;-45
2023/10/01 11:35:37;;;;;;;12.05;5.80;;;;;;;25.94;50.02;102310.13;5010229;28;20381;-43
2023/10/01 11:38:10;;;;;;;15.70;6.80;;;;;;;25.95;50.86;102311.00;5010032;28;20084;-44
2023/10/01 11:43:27;;;;;;;17.42;6.50;;;;;;;26.55;48.54;102314.59;5022006;28;20040;-46
2023/10/01 11:46:25;;;;;;;12.20;5.97;;;;;;;26.68;47.94;102312.44;5009069;28;20030;-45
2023/10/01 11:48:59;;;;;;;14.73;6.00;;;;;;;26.52;48.79;102312.03;5008802;28;20085;-44
2023/10/01 11:51:31;;;;;;;15.48;6.32;;;;;;;26.43;48.83;102306.06;5009548;28;20121;-44
2023/10/01 11:54:09;;;;;;;14.95;6.20;;;;;;;26.46;48.29;102306.88;5012703;28;20046;-47
2023/10/01 11:56:44;;;;;;;14.38;6.35;;;;;;;26.48;48.75;102299.66;5012831;28;20035;-46
2023/10/01 11:59:17;;;;;;;17.83;6.85;;;;;;;26.00;50.93;102301.06;5012732;28;20613;-45
2023/10/01 12:01:49;;;;;;;19.10;6.80;;;;;;;26.58;49.85;102293.13;5013298;28;20033;-43
2023/10/01 12:04:24;;;;;;;13.82;6.28;;;;;;;26.81;48.39;102286.19;5012591;28;20117;-47
2023/10/01 12:06:51;;;;;;;14.85;6.70;;;;;;;26.75;49.36;102295.28;5013425;28;20041;-46
2023/10/01 12:09:18;;;;;;;14.38;6.53;;;;;;;26.63;49.87;102283.16;5014149;28;20025;-49
2023/10/01 12:12:02;;;;;;;14.75;6.68;;;;;;;26.60;48.82;102282.34;5012806;28;20512;-45
2023/10/01 12:14:28;;;;;;;12.60;6.40;;;;;;;26.86;49.12;102286.91;5013142;28;20496;-46
2023/10/01 12:16:55;;;;;;;14.77;6.70;;;;;;;26.44;50.19;102281.09;5012534;28;20038;-45